Time;durP1;ratioP1;P1;durP2;ratioP2;P2;SDS_P1;SDS_P2;PMS_P1;PMS_P2;Temp;Humidity;BMP_temperature;BMP_pressure;BME280_temperature;BME280_humidity;BME280_pressure;Samples;Min_cycle;Max_cycle;Signal;HPM_P1;HPM_P2
2021/08/06 01:02:03;;;;;;;0.20;0.20;;;;;;;15.35;86.24;99314.47;4779667;30;20062;-81
2021/08/06 01:04:52;;;;;;;0.10;0.10;;;;;;;15.37;86.18;99317.03;4743094;30;20055;-80
2021/08/06 01:07:47;;;;;;;0.10;0.10;;;;;;;15.38;86.11;99310.53;4760067;30;20693;-81
2021/08/06 01:10:13;;;;;;;0.10;0.10;;;;;;;15.37;86.26;99300.69;4722282;30;20595;-81
2021/08/06 01:12:57;;;;;;;0.10;0.10;;;;;;;15.35;86.09;99302.75;4738396;30;20458;-82
2021/08/06 01:15:27;;;;;;;0.20;0.20;;;;;;;15.34;86.16;99301.06;4733572;30;20047;-79
2021/08/06 01:17:59;;;;;;;0.20;0.20;;;;;;;15.35;86.20;99302.75;4741968;30;20051;-80
2021/08/06 01:20:29;;;;;;;0.10;0.10;;;;;;;15.35;86.24;99297.31;4749290;30;20364;-79
2021/08/06 01:23:03;;;;;;;0.20;0.20;;;;;;;15.40;86.01;99292.16;4746482;30;20523;-81
2021/08/06 01:25:45;;;;;;;0.13;0.13;;;;;;;15.42;85.89;99288.19;4765996;30;20081;-77
2021/08/06 01:28:16;;;;;;;0.20;0.20;;;;;;;15.46;85.82;99288.63;4759398;30;20058;-79
2021/08/06 01:30:43;;;;;;;0.10;0.10;;;;;;;15.48;85.63;99297.47;4765580;30;20126;-80
2021/08/06 01:33:09;;;;;;;0.20;0.20;;;;;;;15.47;85.92;99300.38;4771643;30;20476;-80
2021/08/06 01:35:36;;;;;;;0.10;0.10;;;;;;;15.48;86.03;99302.09;4736024;30;20123;-80
2021/08/06 01:38:04;;;;;;;0.13;0.13;;;;;;;15.51;85.74;99286.19;4749269;30;20050;-81
2021/08/06 01:40:41;;;;;;;0.20;0.20;;;;;;;15.55;85.54;99286.66;4736745;30;20094;-79
2021/08/06 01:43:20;;;;;;;0.10;0.10;;;;;;;15.59;85.39;99291.53;4752385;30;20042;-80
2021/08/06 01:45:51;;;;;;;0.10;0.10;;;;;;;15.61;85.16;99294.91;4736912;30;20061;-79
2021/08/06 01:48:19;;;;;;;0.10;0.10;;;;;;;15.59;85.22;99293.41;4736868;30;20052;-78
2021/08/06 01:50:49;;;;;;;0.10;0.10;;;;;;;15.62;85.04;99287.56;4742111;30;20135;-80
2021/08/06 01:53:22;;;;;;;0.10;0.10;;;;;;;15.66;84.98;99300.66;4758369;30;20143;-78
2021/08/06 01:55:55;;;;;;;0.13;0.13;;;;;;;15.72;84.99;99295.44;4741475;30;20059;-78
2021/08/06 01:58:22;;;;;;;0.10;0.10;;;;;;;15.73;84.63;99294.44;4736254;30;20530;-81
2021/08/06 02:00:54;;;;;;;0.15;0.15;;;;;;;15.76;84.72;99289.44;4744859;30;20571;-79
2021/08/06 02:03:21;;;;;;;0.20;0.20;;;;;;;15.78;84.75;99283.78;4735303;30;20048;-80
2021/08/06 02:05:53;;;;;;;0.20;0.20;;;;;;;15.77;84.91;99288.41;4744174;29;20059;-80
2021/08/06 02:08:20;;;;;;;0.17;0.17;;;;;;;15.79;84.72;99288.19;4729280;30;20039;-78
2021/08/06 02:10:49;;;;;;;0.13;0.13;;;;;;;15.78;84.65;99286.50;4749863;30;20438;-79
2021/08/06 02:13:18;;;;;;;0.20;0.20;;;;;;;15.78;85.01;99287.34;4749001;30;20040;-79
2021/08/06 02:15:47;;;;;;;0.20;0.20;;;;;;;15.76;84.88;99288.56;4734643;30;20063;-79
2021/08/06 02:18:21;;;;;;;0.10;0.10;;;;;;;15.72;84.98;99281.81;4727231;30;20043;-80
2021/08/06 02:20:57;;;;;;;0.10;0.10;;;;;;;15.66;84.86;99273.41;4754892;30;20090;-80
2021/08/06 02:23:25;;;;;;;0.20;0.20;;;;;;;15.64;85.33;99264.53;4739295;30;20039;-80
2021/08/06 02:25:55;;;;;;;0.20;0.20;;;;;;;15.62;85.27;99263.91;4749545;30;20585;-82
2021/08/06 02:28:21;;;;;;;0.10;0.10;;;;;;;15.61;85.24;99254.03;4738940;30;20043;-78
2021/08/06 02:30:48;;;;;;;0.10;0.10;;;;;;;15.61;85.31;99253.16;4740029;30;20174;-81
2021/08/06 02:33:15;;;;;;;0.15;0.15;;;;;;;15.61;85.42;99254.03;4732026;30;20063;-82
2021/08/06 02:35:41;;;;;;;0.20;0.20;;;;;;;15.61;85.24;99248.59;4754298;30;20065;-84
2021/08/06 02:38:07;;;;;;;0.10;0.10;;;;;;;15.65;85.06;99255.38;4740482;30;20047;-81
2021/08/06 02:40:33;;;;;;;0.13;0.13;;;;;;;15.70;85.10;99256.66;4745501;30;20047;-80
2021/08/06 02:42:59;;;;;;;0.10;0.10;;;;;;;15.73;84.88;99256.28;4744575;30;20139;-80
2021/08/06 02:45:25;;;;;;;0.10;0.10;;;;;;;15.72;84.79;99258.13;4728868;30;20055;-80
2021/08/06 02:47:52;;;;;;;0.10;0.10;;;;;;;15.72;84.89;99254.56;4754933;30;20055;-79
2021/08/06 02:50:17;;;;;;;0.20;0.20;;;;;;;15.79;84.91;99266.38;4749647;30;20492;-84
2021/08/06 02:52:44;;;;;;;0.10;0.10;;;;;;;15.85;84.55;99254.72;4730977;30;20047;-81
2021/08/06 02:55:10;;;;;;;0.10;0.10;;;;;;;15.87;84.60;99248.03;4768212;30;20048;-81
2021/08/06 02:57:36;;;;;;;0.10;0.10;;;;;;;15.94;84.29;99258.97;4756552;30;20052;-78
2021/08/06 03:00:04;;;;;;;0.10;0.10;;;;;;;15.94;84.17;99252.69;4734040;30;20055;-83
2021/08/06 03:02:32;;;;;;;0.15;0.15;;;;;;;15.97;84.39;99253.13;4749673;30;20147;-82
2021/08/06 03:04:59;;;;;;;0.20;0.20;;;;;;;15.97;84.36;99246.84;4720787;30;20059;-80
2021/08/06 03:07:25;;;;;;;0.10;0.10;;;;;;;16.01;84.19;99248.13;4766972;30;20394;-79
2021/08/06 03:09:51;;;;;;;0.20;0.20;;;;;;;16.04;84.14;99254.03;4751127;30;20094;-80
2021/08/06 03:12:18;;;;;;;0.10;0.10;;;;;;;16.07;83.74;99255.53;4747839;30;20044;-80
2021/08/06 03:14:44;;;;;;;0.20;0.20;;;;;;;16.09;83.46;99262.50;4750851;30;20051;-82
2021/08/06 03:17:11;;;;;;;0.10;0.10;;;;;;;16.19;83.49;99266.75;4738607;29;20124;-80
2021/08/06 03:19:41;;;;;;;0.20;0.20;;;;;;;16.18;83.20;99267.81;4738910;30;20197;-81
2021/08/06 03:22:07;;;;;;;0.20;0.20;;;;;;;16.18;83.21;99270.53;4767188;30;20557;-80
2021/08/06 03:24:33;;;;;;;0.10;0.10;;;;;;;16.18;83.26;99270.53;4771937;30;20080;-80
2021/08/06 03:26:59;;;;;;;0.20;0.20;;;;;;;16.19;83.10;99272.22;4758278;30;20044;-81
2021/08/06 03:29:26;;;;;;;0.10;0.10;;;;;;;16.21;82.89;99272.88;4758204;30;20047;-78
2021/08/06 03:31:51;;;;;;;0.20;0.20;;;;;;;16.24;83.31;99276.06;4728481;30;20067;-79
2021/08/06 03:34:17;;;;;;;0.10;0.10;;;;;;;16.23;83.16;99268.88;4750557;30;20062;-80
2021/08/06 03:36:46;;;;;;;0.20;0.20;;;;;;;16.23;82.99;99262.59;4746612;30;20090;-82
2021/08/06 03:39:13;;;;;;;0.20;0.20;;;;;;;16.29;83.19;99256.34;4729234;30;20494;-80
2021/08/06 03:41:39;;;;;;;0.10;0.10;;;;;;;16.31;82.94;99254.28;4753674;30;20056;-80
2021/08/06 03:44:06;;;;;;;0.10;0.10;;;;;;;16.36;83.01;99247.19;4739916;30;20044;-80
2021/08/06 03:46:32;;;;;;;0.20;0.20;;;;;;;16.41;82.82;99254.75;4749189;30;20055;-79
2021/08/06 03:48:59;;;;;;;0.20;0.20;;;;;;;16.43;83.09;99246.41;4773763;30;20147;-80
2021/08/06 03:51:26;;;;;;;0.20;0.20;;;;;;;16.45;83.00;99247.84;4760700;30;20138;-80
2021/08/06 03:53:52;;;;;;;0.20;0.20;;;;;;;16.51;82.84;99258.00;4753214;30;20147;-82
2021/08/06 03:56:18;;;;;;;0.20;0.20;;;;;;;16.57;82.40;99249.00;4748174;30;20060;-82
2021/08/06 03:58:44;;;;;;;0.15;0.15;;;;;;;16.61;82.36;99244.84;4758992;30;20063;-78
2021/08/06 04:01:10;;;;;;;0.17;0.17;;;;;;;16.68;81.96;99244.03;4753718;30;20534;-78
2021/08/06 04:03:36;;;;;;;0.10;0.10;;;;;;;16.72;81.88;99246.16;4768799;30;20130;-81
2021/08/06 04:06:07;;;;;;;0.20;0.20;;;;;;;16.77;81.67;99245.59;4753355;30;20076;-80
2021/08/06 04:08:33;;;;;;;0.20;0.20;;;;;;;16.77;81.67;99242.84;4737011;30;20040;-80
2021/08/06 04:10:59;;;;;;;0.20;0.20;;;;;;;16.84;81.31;99249.19;4749645;30;20079;-81
2021/08/06 04:13:25;;;;;;;0.20;0.20;;;;;;;16.90;81.50;99242.09;4753194;30;20174;-81
2021/08/06 04:15:51;;;;;;;0.10;0.10;;;;;;;16.94;81.44;99238.75;4757095;30;20172;-82
2021/08/06 04:18:17;;;;;;;0.20;0.20;;;;;;;17.00;81.29;99240.69;4765096;30;20039;-81
2021/08/06 04:20:43;;;;;;;0.20;0.20;;;;;;;17.08;81.29;99240.50;4758854;30;20531;-80
2021/08/06 04:23:09;;;;;;;0.20;0.20;;;;;;;17.16;81.32;99246.84;4769834;30;20048;-82
2021/08/06 04:25:35;;;;;;;0.20;0.20;;;;;;;17.23;80.82;99255.91;4754301;30;20442;-82
2021/08/06 04:28:00;;;;;;;0.10;0.10;;;;;;;17.25;80.85;99245.59;4759220;30;20059;-80
2021/08/06 04:30:27;;;;;;;0.20;0.20;;;;;;;17.31;80.88;99253.00;4743920;30;20092;-83
2021/08/06 04:32:54;;;;;;;0.20;0.20;;;;;;;17.37;80.68;99260.38;4738390;30;20098;-82
2021/08/06 04:35:20;;;;;;;0.10;0.10;;;;;;;17.41;80.23;99253.44;4760701;30;20043;-83
2021/08/06 04:37:48;;;;;;;0.10;0.10;;;;;;;17.48;79.46;99262.50;4748747;30;20365;-82
2021/08/06 04:40:15;;;;;;;0.20;0.20;;;;;;;17.47;79.69;99266.28;4749580;30;20102;-82
2021/08/06 04:42:40;;;;;;;0.20;0.20;;;;;;;17.51;79.60;99272.19;4782087;30;20043;-80
2021/08/06 04:45:07;;;;;;;0.20;0.20;;;;;;;17.50;79.54;99275.97;4747062;30;20066;-79
2021/08/06 04:47:33;;;;;;;0.20;0.20;;;;;;;17.49;79.45;99275.13;4751573;30;20039;-80
2021/08/06 04:49:59;;;;;;;0.28;0.20;;;;;;;17.50;79.83;99275.97;4753967;30;20090;-81
2021/08/06 04:52:25;;;;;;;0.10;0.10;;;;;;;17.48;79.67;99262.50;4768817;30;20040;-80
2021/08/06 04:54:51;;;;;;;0.20;0.20;;;;;;;17.52;79.50;99272.00;4761817;30;20430;-80
2021/08/06 04:57:18;;;;;;;0.17;0.17;;;;;;;17.50;79.75;99282.28;4736433;30;20054;-82
2021/08/06 04:59:43;;;;;;;0.20;0.20;;;;;;;17.50;80.16;99286.91;4735486;30;20036;-80
2021/08/06 05:02:09;;;;;;;0.15;0.15;;;;;;;17.52;80.29;99288.38;4762033;30;20097;-80
2021/08/06 05:04:35;;;;;;;0.10;0.10;;;;;;;17.49;79.95;99280.59;4742165;30;20048;-79
2021/08/06 05:07:01;;;;;;;0.20;0.20;;;;;;;17.51;80.33;99278.47;4742691;30;20099;-82
2021/08/06 05:09:27;;;;;;;0.20;0.20;;;;;;;17.52;80.09;99274.72;4784828;30;20101;-82
2021/08/06 05:11:53;;;;;;;0.10;0.10;;;;;;;17.51;80.48;99273.00;4753773;30;20059;-79
2021/08/06 05:14:19;;;;;;;0.10;0.10;;;;;;;17.54;80.23;99280.81;4780626;30;20047;-81
2021/08/06 05:16:45;;;;;;;0.22;0.20;;;;;;;17.55;80.64;99268.84;4754590;30;20059;-81
2021/08/06 05:19:11;;;;;;;0.10;0.10;;;;;;;17.49;79.58;99269.66;4742593;30;20054;-83
2021/08/06 05:21:37;;;;;;;0.10;0.10;;;;;;;17.49;80.07;99277.84;4743817;30;20040;-80
2021/08/06 05:24:03;;;;;;;0.20;0.20;;;;;;;17.53;80.92;99281.88;4735578;30;20094;-79
2021/08/06 05:26:29;;;;;;;0.20;0.20;;;;;;;17.62;80.45;99284.41;4747821;30;20040;-81
2021/08/06 05:28:55;;;;;;;0.10;0.10;;;;;;;17.66;80.39;99285.69;4740585;30;20043;-78
2021/08/06 05:31:22;;;;;;;0.20;0.20;;;;;;;17.69;80.42;99280.63;4721353;30;20052;-81
2021/08/06 05:33:49;;;;;;;0.20;0.20;;;;;;;17.73;80.28;99281.06;4728719;30;20389;-83
2021/08/06 05:36:15;;;;;;;0.20;0.20;;;;;;;17.80;80.52;99291.00;4752983;30;20048;-83
2021/08/06 05:38:42;;;;;;;0.20;0.20;;;;;;;17.85;80.38;99284.09;4752383;30;20048;-82
2021/08/06 05:41:09;;;;;;;0.20;0.20;;;;;;;17.91;80.15;99281.34;4746879;30;20059;-83
2021/08/06 05:43:36;;;;;;;0.20;0.20;;;;;;;17.98;79.65;99284.94;4739222;30;20059;-82
2021/08/06 05:46:02;;;;;;;0.20;0.20;;;;;;;18.04;78.96;99278.66;4734481;30;20048;-84
2021/08/06 05:48:31;;;;;;;0.20;0.20;;;;;;;18.14;78.73;99280.97;4737475;30;20052;-82
2021/08/06 05:50:57;;;;;;;0.13;0.13;;;;;;;18.23;78.29;99281.59;4733690;30;20064;-82
2021/08/06 05:53:25;;;;;;;0.20;0.20;;;;;;;18.36;77.77;99276.16;4744247;30;20075;-81
2021/08/06 05:55:58;;;;;;;0.20;0.20;;;;;;;18.45;77.57;99277.59;4725699;30;20044;-80
2021/08/06 05:58:27;;;;;;;0.20;0.20;;;;;;;18.51;76.75;99268.53;4726330;30;20063;-82
2021/08/06 06:00:54;;;;;;;0.20;0.20;;;;;;;18.64;76.08;99261.34;4760242;30;20104;-82
2021/08/06 06:03:31;;;;;;;0.20;0.20;;;;;;;18.87;75.11;99271.91;4745707;30;20055;-83
2021/08/06 06:06:17;;;;;;;0.20;0.20;;;;;;;19.04;74.43;99268.47;4744927;30;20070;-86
2021/08/06 06:08:43;;;;;;;0.20;0.20;;;;;;;19.22;73.75;99264.19;4782095;30;20062;-86
2021/08/06 06:11:10;;;;;;;0.20;0.20;;;;;;;19.40;73.20;99271.72;4762577;30;20047;-83
2021/08/06 06:13:36;;;;;;;0.20;0.20;;;;;;;19.55;72.18;99269.53;4753791;30;20054;-81
2021/08/06 06:16:02;;;;;;;0.20;0.20;;;;;;;19.57;71.49;99272.06;4753303;30;20064;-82
2021/08/06 06:18:29;;;;;;;0.20;0.20;;;;;;;19.57;71.91;99267.41;4753682;30;20071;-83
2021/08/06 06:20:56;;;;;;;0.20;0.20;;;;;;;19.61;72.17;99267.81;4739721;30;20043;-82
2021/08/06 06:23:25;;;;;;;0.20;0.20;;;;;;;19.51;72.64;99269.13;4751859;30;20380;-83
2021/08/06 06:25:54;;;;;;;0.20;0.20;;;;;;;19.46;73.28;99265.38;4748567;30;20144;-82
2021/08/06 06:28:22;;;;;;;0.20;0.20;;;;;;;19.52;73.95;99254.38;4743408;30;20060;-83
2021/08/06 06:30:52;;;;;;;0.20;0.20;;;;;;;19.57;73.23;99256.44;4755753;30;20151;-84
2021/08/06 06:33:19;;;;;;;0.20;0.20;;;;;;;19.70;73.33;99263.78;4744544;30;20055;-83
2021/08/06 06:35:48;;;;;;;0.20;0.20;;;;;;;19.74;72.64;99257.66;4762408;30;20039;-84
2021/08/06 06:38:14;;;;;;;0.20;0.20;;;;;;;19.77;72.66;99256.34;4760843;30;20062;-83
2021/08/06 06:40:41;;;;;;;0.20;0.20;;;;;;;19.81;72.48;99260.31;4745686;30;20066;-84
2021/08/06 06:43:15;;;;;;;0.20;0.20;;;;;;;19.91;72.18;99263.44;4759477;30;20050;-85
2021/08/06 06:45:41;;;;;;;0.20;0.20;;;;;;;19.85;72.02;99275.28;4742989;30;20089;-84
2021/08/06 06:48:08;;;;;;;0.20;0.20;;;;;;;19.99;71.65;99287.84;4771801;30;20055;-83
2021/08/06 06:50:36;;;;;;;0.20;0.20;;;;;;;19.85;71.89;99275.28;4755515;30;20103;-83
2021/08/06 06:53:02;;;;;;;0.20;0.20;;;;;;;19.89;71.59;99281.16;4758379;30;20094;-83
2021/08/06 06:55:28;;;;;;;0.17;0.17;;;;;;;19.87;72.08;99284.16;4763221;30;20047;-83
2021/08/06 06:57:56;;;;;;;0.20;0.20;;;;;;;19.88;72.10;99272.09;4747483;30;20048;-85
2021/08/06 07:00:26;;;;;;;0.20;0.20;;;;;;;20.12;71.30;99280.59;4758696;30;20052;-85
2021/08/06 07:02:53;;;;;;;0.20;0.20;;;;;;;20.22;70.58;99287.28;4765485;30;20508;-83
2021/08/06 07:05:20;;;;;;;0.20;0.20;;;;;;;20.37;70.27;99286.97;4764929;30;20044;-83
2021/08/06 07:07:48;;;;;;;0.20;0.20;;;;;;;20.28;69.97;99291.03;4751076;30;20172;-84
2021/08/06 07:10:14;;;;;;;0.20;0.20;;;;;;;20.43;69.36;99276.97;4764852;30;20047;-84
2021/08/06 07:12:41;;;;;;;0.20;0.20;;;;;;;20.46;69.91;99288.34;4745919;30;20044;-85
2021/08/06 07:15:09;;;;;;;0.20;0.20;;;;;;;20.56;69.26;99279.63;4750163;30;20055;-84
2021/08/06 07:17:37;;;;;;;0.20;0.20;;;;;;;20.46;68.66;99282.84;4758919;30;20055;-83
2021/08/06 07:20:05;;;;;;;0.17;0.17;;;;;;;20.69;68.64;99275.91;4753220;30;20126;-83
2021/08/06 07:22:31;;;;;;;0.20;0.20;;;;;;;20.95;67.83;99275.66;4741551;30;20418;-82
2021/08/06 07:25:06;;;;;;;0.20;0.20;;;;;;;21.24;66.85;99284.19;4771237;30;20115;-85
2021/08/06 07:27:31;;;;;;;0.30;0.30;;;;;;;21.79;64.49;99284.19;4751613;30;20055;-82
2021/08/06 07:29:58;;;;;;;0.40;0.40;;;;;;;22.43;62.35;99289.16;4769353;30;20056;-82
2021/08/06 07:32:23;;;;;;;0.10;0.10;;;;;;;22.20;63.15;99271.53;4751269;30;20097;-83
2021/08/06 07:34:50;;;;;;;0.10;0.10;;;;;;;22.17;62.64;99272.00;4758719;30;20468;-82
2021/08/06 07:37:16;;;;;;;0.10;0.10;;;;;;;21.96;63.95;99269.75;4752703;30;20075;-83
2021/08/06 07:39:53;;;;;;;0.10;0.10;;;;;;;21.65;64.11;99274.44;4739520;30;20051;-84
2021/08/06 07:42:47;;;;;;;0.10;0.10;;;;;;;21.61;63.96;99264.94;4751938;30;20050;-83
2021/08/06 07:45:14;;;;;;;0.10;0.10;;;;;;;21.52;64.17;99263.59;4755356;30;20044;-84
2021/08/06 07:47:40;;;;;;;0.20;0.20;;;;;;;21.69;64.88;99259.13;4756849;30;20055;-85
2021/08/06 07:50:08;;;;;;;0.15;0.15;;;;;;;21.75;64.56;99255.41;4744276;30;20051;-85
2021/08/06 07:52:34;;;;;;;0.20;0.20;;;;;;;21.78;64.21;99257.72;4756030;30;20125;-85
2021/08/06 07:55:01;;;;;;;0.20;0.20;;;;;;;21.76;64.72;99254.38;4711511;30;20074;-83
2021/08/06 07:57:27;;;;;;;0.20;0.20;;;;;;;21.69;63.25;99250.88;4780292;30;20083;-83
2021/08/06 07:59:53;;;;;;;0.10;0.10;;;;;;;21.68;63.55;99246.41;4757976;30;20044;-84
2021/08/06 08:02:21;;;;;;;0.10;0.10;;;;;;;21.64;64.49;99256.22;4749688;30;20071;-82
2021/08/06 08:04:48;;;;;;;0.20;0.20;;;;;;;21.66;64.12;99254.09;4762078;30;20533;-83
2021/08/06 08:07:16;;;;;;;0.20;0.20;;;;;;;21.61;64.58;99267.69;4765496;30;20044;-84
2021/08/06 08:09:41;;;;;;;0.10;0.10;;;;;;;21.45;63.65;99260.09;4765890;30;20044;-83
2021/08/06 08:12:08;;;;;;;0.20;0.20;;;;;;;21.61;63.39;99256.69;4775203;30;20032;-82
2021/08/06 08:14:35;;;;;;;0.20;0.20;;;;;;;21.68;64.15;99260.19;4751903;30;20039;-83
2021/08/06 08:17:03;;;;;;;0.20;0.20;;;;;;;21.69;64.94;99253.63;4768348;30;20442;-83
2021/08/06 08:19:29;;;;;;;0.20;0.20;;;;;;;21.91;64.76;99241.00;4780212;30;20123;-84
2021/08/06 08:21:55;;;;;;;0.20;0.20;;;;;;;22.51;62.74;99244.72;4758479;30;20066;-85
2021/08/06 08:24:22;;;;;;;0.20;0.20;;;;;;;22.67;63.28;99246.78;4762435;30;20438;-84
2021/08/06 08:26:51;;;;;;;0.20;0.20;;;;;;;22.64;62.19;99258.28;4752583;30;20116;-84
2021/08/06 08:29:17;;;;;;;0.20;0.20;;;;;;;22.89;62.95;99241.50;4743905;30;20052;-83
2021/08/06 08:31:43;;;;;;;0.20;0.20;;;;;;;23.04;63.32;99243.78;4764637;30;20047;-82
2021/08/06 08:34:10;;;;;;;0.20;0.20;;;;;;;23.01;63.49;99249.78;4759251;30;20035;-83
2021/08/06 08:36:37;;;;;;;0.30;0.30;;;;;;;23.04;63.44;99239.09;4764008;30;20051;-82
2021/08/06 08:39:04;;;;;;;0.30;0.30;;;;;;;23.17;62.73;99249.00;4750744;30;20063;-83
2021/08/06 08:41:33;;;;;;;0.20;0.20;;;;;;;23.21;62.26;99243.84;4761177;30;20043;-83
2021/08/06 08:44:04;;;;;;;0.20;0.20;;;;;;;23.27;61.54;99243.72;4772069;30;20498;-84
2021/08/06 08:46:34;;;;;;;0.20;0.20;;;;;;;23.16;61.74;99241.81;4753307;30;20043;-83
2021/08/06 08:49:04;;;;;;;0.20;0.20;;;;;;;23.08;60.94;99239.44;4747994;30;20052;-83
2021/08/06 08:51:34;;;;;;;0.20;0.20;;;;;;;23.14;61.74;99243.97;4748131;30;20394;-83
2021/08/06 08:54:02;;;;;;;0.20;0.20;;;;;;;23.21;62.12;99239.16;4738655;30;20058;-83
2021/08/06 08:56:30;;;;;;;0.20;0.20;;;;;;;23.18;62.68;99245.19;4742163;30;20071;-84
2021/08/06 08:58:57;;;;;;;0.20;0.20;;;;;;;23.17;62.82;99237.97;4752448;30;20074;-83
2021/08/06 09:01:23;;;;;;;0.20;0.20;;;;;;;23.25;62.69;99245.03;4750998;30;20043;-83
2021/08/06 09:03:50;;;;;;;0.20;0.20;;;;;;;23.13;62.61;99245.06;4729302;30;20105;-84
2021/08/06 09:06:41;;;;;;;0.10;0.10;;;;;;;23.15;62.88;99251.19;4758407;30;20062;-83
2021/08/06 09:09:21;;;;;;;0.20;0.20;;;;;;;23.20;61.64;99251.28;4729088;30;20059;-84
2021/08/06 09:12:23;;;;;;;0.10;0.10;;;;;;;22.94;61.80;99254.56;4767421;30;20048;-84
2021/08/06 09:14:49;;;;;;;0.13;0.13;;;;;;;22.83;62.11;99253.47;4772270;30;20043;-84
2021/08/06 09:17:18;;;;;;;0.10;0.10;;;;;;;22.95;62.84;99261.75;4753567;30;20506;-82
2021/08/06 09:19:56;;;;;;;0.10;0.10;;;;;;;22.74;63.98;99269.50;4734137;30;20051;-83
2021/08/06 09:22:27;;;;;;;0.10;0.10;;;;;;;22.77;63.60;99269.03;4754160;30;20047;-82
2021/08/06 09:24:59;;;;;;;0.17;0.17;;;;;;;22.47;64.50;99276.59;4765005;30;20041;-83
2021/08/06 09:27:28;;;;;;;0.10;0.10;;;;;;;22.19;66.20;99280.84;4748772;30;20208;-84
2021/08/06 09:29:57;;;;;;;0.10;0.10;;;;;;;22.08;67.66;99284.38;4748519;30;20051;-82
2021/08/06 09:32:24;;;;;;;0.10;0.10;;;;;;;21.98;67.53;99286.88;4756648;30;20526;-84
2021/08/06 09:34:50;;;;;;;0.10;0.10;;;;;;;21.90;68.89;99290.78;4740907;30;20510;-81
2021/08/06 09:37:23;;;;;;;0.10;0.10;;;;;;;21.85;68.83;99285.97;4722291;30;20103;-83
2021/08/06 09:39:55;;;;;;;0.10;0.10;;;;;;;21.64;68.93;99281.81;4748366;30;20197;-84
2021/08/06 09:42:27;;;;;;;0.10;0.10;;;;;;;21.61;70.01;99284.19;4768886;30;20153;-84
2021/08/06 09:45:04;;;;;;;0.10;0.10;;;;;;;21.50;70.05;99282.22;4750770;30;20051;-83
2021/08/06 09:47:32;;;;;;;0.10;0.10;;;;;;;21.43;71.40;99276.81;4771544;30;20047;-84
2021/08/06 09:50:01;;;;;;;0.10;0.10;;;;;;;21.47;71.94;99286.28;4758957;30;20055;-85
2021/08/06 09:52:36;;;;;;;0.10;0.10;;;;;;;21.36;72.60;99276.91;4765728;30;20038;-84
2021/08/06 09:55:03;;;;;;;0.10;0.10;;;;;;;;;;4746461;30;20043;-84
2021/08/06 09:57:30;;;;;;;0.10;0.10;;;;;;;21.25;73.07;99279.56;4772626;30;20419;-85
2021/08/06 09:59:57;;;;;;;0.10;0.10;;;;;;;21.21;74.02;99279.19;4762923;30;20048;-83
2021/08/06 10:02:24;;;;;;;0.10;0.10;;;;;;;21.22;73.72;99274.53;4780442;30;20476;-83
2021/08/06 10:05:10;;;;;;;0.10;0.10;;;;;;;21.25;74.33;99285.91;4759312;30;20058;-83
2021/08/06 10:07:43;;;;;;;0.10;0.10;;;;;;;21.30;74.91;99297.03;4724231;30;20418;-83
2021/08/06 10:10:13;;;;;;;;;;;;;;;21.16;75.06;99284.50;4760949;30;20077;-84
2021/08/06 10:12:39;;;;;;;0.10;0.10;;;;;;;21.12;75.16;99275.88;4765035;30;19930;-84
2021/08/06 10:15:06;;;;;;;0.10;0.10;;;;;;;21.06;75.06;99270.44;4762034;30;20027;-83
2021/08/06 10:17:35;;;;;;;0.10;0.10;;;;;;;20.93;74.89;99275.03;4782816;30;20071;-84
2021/08/06 10:20:06;;;;;;;0.10;0.10;;;;;;;20.86;75.28;99266.03;4734011;30;20044;-82
2021/08/06 10:22:32;;;;;;;0.10;0.10;;;;;;;20.85;76.23;99269.00;4752576;30;20040;-83
2021/08/06 10:24:59;;;;;;;0.10;0.10;;;;;;;20.83;76.15;99271.97;4750050;30;20059;-84
2021/08/06 10:27:29;;;;;;;0.10;0.10;;;;;;;20.90;76.90;99274.66;4754197;30;20052;-83
2021/08/06 10:30:08;;;;;;;0.10;0.10;;;;;;;20.92;77.36;99278.88;4756938;30;20077;-83
2021/08/06 10:32:35;;;;;;;0.10;0.10;;;;;;;20.90;77.45;99270.00;4750718;30;20048;-84
2021/08/06 10:35:07;;;;;;;0.10;0.10;;;;;;;20.88;78.19;99269.41;4760624;30;20055;-85
2021/08/06 10:37:58;;;;;;;0.10;0.10;;;;;;;20.87;77.57;99267.69;4773447;30;20052;-82
2021/08/06 10:40:32;;;;;;;0.10;0.10;;;;;;;20.83;77.91;99260.13;4772596;30;20048;-83
2021/08/06 10:42:58;;;;;;;0.10;0.10;;;;;;;20.79;78.04;99262.50;4770099;30;20079;-85
2021/08/06 10:45:47;;;;;;;0.10;0.10;;;;;;;20.73;78.58;99257.06;4775434;30;20551;-84
2021/08/06 10:48:35;;;;;;;0.10;0.10;;;;;;;20.63;79.40;99254.88;4768636;30;20050;-83
2021/08/06 10:51:16;;;;;;;0.10;0.10;;;;;;;20.63;79.49;99250.19;4744712;30;20074;-83
2021/08/06 10:53:52;;;;;;;0.10;0.10;;;;;;;20.63;80.06;99243.88;4781539;30;20152;-84
2021/08/06 10:56:21;;;;;;;0.10;0.10;;;;;;;20.61;79.38;99256.97;4751417;30;20062;-85
2021/08/06 10:58:50;;;;;;;0.10;0.10;;;;;;;20.59;77.66;99268.22;4758538;30;20082;-81
2021/08/06 11:01:26;;;;;;;0.10;0.10;;;;;;;20.66;78.35;99262.66;4754910;30;20051;-85
2021/08/06 11:03:56;;;;;;;0.17;0.17;;;;;;;20.75;78.51;99264.03;4748328;30;20094;-84
2021/08/06 11:06:35;;;;;;;0.17;0.17;;;;;;;20.90;78.02;99261.75;4769425;30;20047;-84
2021/08/06 11:09:05;;;;;;;0.10;0.10;;;;;;;21.06;77.66;99262.22;4766561;30;20135;-82
2021/08/06 11:11:49;;;;;;;0.10;0.10;;;;;;;21.28;76.74;99263.44;4766345;30;20084;-84
2021/08/06 11:14:30;;;;;;;0.20;0.20;;;;;;;21.41;77.02;99263.28;4956078;24;20060;-85
2021/08/06 11:17:09;;;;;;;0.10;0.10;;;;;;;21.42;75.32;99264.13;4798049;29;20053;-84
2021/08/06 11:20:05;;;;;;;0.10;0.10;;;;;;;21.36;76.35;99260.41;4764632;30;20043;-83
2021/08/06 11:22:37;;;;;;;0.10;0.10;;;;;;;21.26;76.04;99248.25;4789666;30;20051;-85
2021/08/06 11:25:21;;;;;;;0.20;0.20;;;;;;;21.21;75.19;99246.19;4782316;29;20057;-84
2021/08/06 11:27:52;;;;;;;0.10;0.10;;;;;;;21.12;75.65;99231.06;4801304;30;20110;-85
2021/08/06 11:30:27;;;;;;;0.13;0.13;;;;;;;21.19;76.42;99224.41;4783728;29;20087;-84
2021/08/06 11:33:00;;;;;;;0.10;0.10;;;;;;;21.25;76.14;99227.31;4785498;29;20421;-84
2021/08/06 11:35:32;;;;;;;0.20;0.20;;;;;;;21.20;76.02;99226.06;4772984;30;20070;-85
2021/08/06 11:38:01;;;;;;;0.10;0.10;;;;;;;21.20;76.82;99223.34;4780266;30;20052;-85
2021/08/06 11:40:45;;;;;;;0.10;0.10;;;;;;;21.12;76.11;99220.06;4801756;29;20059;-84
2021/08/06 11:43:22;;;;;;;0.10;0.10;;;;;;;21.07;78.33;99217.19;4771172;30;20054;-83
2021/08/06 11:45:52;;;;;;;0.10;0.10;;;;;;;21.03;78.45;99218.72;4785051;30;20051;-84
2021/08/06 11:48:22;;;;;;;0.10;0.10;;;;;;;21.04;77.53;99223.13;4791629;30;20063;-83
2021/08/06 11:50:53;;;;;;;0.10;0.10;;;;;;;20.93;77.23;99222.81;4786826;30;20041;-83
2021/08/06 11:53:28;;;;;;;0.10;0.10;;;;;;;20.89;78.18;99229.84;4787441;30;20046;-83
2021/08/06 11:55:56;;;;;;;0.10;0.10;;;;;;;20.73;78.54;99227.69;4794663;29;20047;-85
2021/08/06 11:58:33;;;;;;;0.10;0.10;;;;;;;20.65;78.75;99225.25;4782864;30;20048;-86
2021/08/06 12:00:59;;;;;;;0.10;0.10;;;;;;;20.73;79.07;99222.19;4801158;29;20084;-84
2021/08/06 12:03:25;;;;;;;0.10;0.10;;;;;;;20.72;80.52;99204.03;4782406;30;20355;-85
2021/08/06 12:05:59;;;;;;;0.10;0.10;;;;;;;20.77;79.95;99215.19;4782326;29;20039;-85
2021/08/06 12:08:34;;;;;;;0.20;0.20;;;;;;;20.83;80.45;99225.25;4797376;29;20054;-83
2021/08/06 12:11:08;;;;;;;0.10;0.10;;;;;;;20.88;79.17;99224.59;4786410;30;20058;-83
2021/08/06 12:13:39;;;;;;;0.15;0.15;;;;;;;20.93;79.20;99222.00;4796127;29;20090;-84
2021/08/06 12:16:12;;;;;;;0.10;0.10;;;;;;;20.95;78.37;99209.72;4800250;29;20101;-86
2021/08/06 12:18:48;;;;;;;0.10;0.10;;;;;;;21.01;77.93;99212.59;4805431;24;20430;-82
2021/08/06 12:21:22;;;;;;;0.10;0.10;;;;;;;21.07;76.85;99206.19;4762905;30;20047;-84
2021/08/06 12:27:10;;;;;;;0.20;0.20;;;;;;;21.09;76.11;99215.03;5122354;24;20046;-84
2021/08/06 12:29:39;;;;;;;0.20;0.20;;;;;;;21.16;75.77;99216.63;4841444;24;20059;-84
2021/08/06 12:32:13;;;;;;;0.10;0.10;;;;;;;21.15;76.89;99214.94;5232842;24;20051;-83
2021/08/06 12:37:37;;;;;;;0.20;0.20;;;;;;;21.04;75.18;99195.66;4767489;30;20500;-85
2021/08/06 12:40:08;;;;;;;0.20;0.20;;;;;;;21.09;75.95;99193.03;5178964;24;20836;-84
2021/08/06 12:42:37;;;;;;;0.10;0.10;;;;;;;21.13;76.40;99199.75;4775670;30;20046;-83
2021/08/06 12:48:20;;;;;;;0.10;0.10;;;;;;;21.12;75.91;99198.06;5149910;24;20748;-83
2021/08/06 12:50:49;;;;;;;0.10;0.10;;;;;;;21.13;76.46;99202.50;4805063;29;20098;-85
2021/08/06 12:53:18;;;;;;;0.10;0.10;;;;;;;21.10;76.28;99194.72;4787518;29;20114;-84
2021/08/06 12:55:45;;;;;;;0.10;0.10;;;;;;;21.05;76.34;99192.66;4791487;30;20062;-84